sensor_id;sensor_type;location;lat;lon;timestamp;pressure;altitude;pressure_sealevel;temperature;humidity
18813;BME280;9534;51.140;6.296;2023-01-29T00:02:15;102037.50;;;-4.01;100.00
18813;BME280;9534;51.140;6.296;2023-01-29T00:06:19;102036.72;;;-4.03;100.00
18813;BME280;9534;51.140;6.296;2023-01-29T00:10:24;102038.94;;;-4.11;100.00
18813;BME280;9534;51.140;6.296;2023-01-29T00:14:29;102038.28;;;-3.99;100.00
18813;BME280;9534;51.140;6.296;2023-01-29T00:18:32;102024.63;;;-4.10;100.00
18813;BME280;9534;51.140;6.296;2023-01-29T00:22:35;102022.66;;;-4.22;100.00
18813;BME280;9534;51.140;6.296;2023-01-29T00:26:38;102026.94;;;-4.20;100.00
18813;BME280;9534;51.140;6.296;2023-01-29T00:30:44;102021.00;;;-4.09;100.00
18813;BME280;9534;51.140;6.296;2023-01-29T00:34:47;102011.63;;;-3.85;100.00
18813;BME280;9534;51.140;6.296;2023-01-29T00:38:54;102017.25;;;-3.74;100.00
18813;BME280;9534;51.140;6.296;2023-01-29T00:42:59;102016.81;;;-3.52;100.00
18813;BME280;9534;51.140;6.296;2023-01-29T00:47:21;102016.78;;;-3.07;100.00
18813;BME280;9534;51.140;6.296;2023-01-29T00:51:34;102002.44;;;-3.06;100.00
18813;BME280;9534;51.140;6.296;2023-01-29T00:55:38;102007.63;;;-3.03;100.00
18813;BME280;9534;51.140;6.296;2023-01-29T00:59:41;102000.66;;;-3.35;100.00
18813;BME280;9534;51.140;6.296;2023-01-29T01:03:45;102004.13;;;-3.63;100.00
18813;BME280;9534;51.140;6.296;2023-01-29T01:07:51;102011.72;;;-3.71;100.00
18813;BME280;9534;51.140;6.296;2023-01-29T01:11:54;102009.66;;;-3.82;100.00
18813;BME280;9534;51.140;6.296;2023-01-29T01:15:56;102005.69;;;-3.90;100.00
18813;BME280;9534;51.140;6.296;2023-01-29T01:20:01;102018.78;;;-4.01;100.00
18813;BME280;9534;51.140;6.296;2023-01-29T01:24:04;102009.13;;;-3.88;100.00
18813;BME280;9534;51.140;6.296;2023-01-29T01:28:10;102003.97;;;-3.91;100.00
18813;BME280;9534;51.140;6.296;2023-01-29T01:32:14;101988.94;;;-3.78;100.00
18813;BME280;9534;51.140;6.296;2023-01-29T01:36:19;101987.97;;;-3.47;100.00
18813;BME280;9534;51.140;6.296;2023-01-29T01:40:23;101986.41;;;-3.35;100.00
18813;BME280;9534;51.140;6.296;2023-01-29T01:44:56;101984.25;;;-3.44;100.00
18813;BME280;9534;51.140;6.296;2023-01-29T01:49:02;101981.84;;;-3.64;100.00
18813;BME280;9534;51.140;6.296;2023-01-29T01:53:11;101977.94;;;-3.88;100.00
18813;BME280;9534;51.140;6.296;2023-01-29T01:57:16;101980.66;;;-3.89;100.00
18813;BME280;9534;51.140;6.296;2023-01-29T02:01:26;101983.75;;;-3.51;100.00
18813;BME280;9534;51.140;6.296;2023-01-29T02:05:31;101985.47;;;-3.50;100.00
18813;BME280;9534;51.140;6.296;2023-01-29T02:09:57;101991.00;;;-3.53;100.00
18813;BME280;9534;51.140;6.296;2023-01-29T02:14:02;101983.69;;;-3.64;100.00
18813;BME280;9534;51.140;6.296;2023-01-29T02:18:05;101988.09;;;-3.63;100.00
18813;BME280;9534;51.140;6.296;2023-01-29T02:22:28;101982.41;;;-3.88;100.00
18813;BME280;9534;51.140;6.296;2023-01-29T02:26:49;102001.00;;;-4.02;100.00
18813;BME280;9534;51.140;6.296;2023-01-29T02:31:04;102002.75;;;-4.01;100.00
18813;BME280;9534;51.140;6.296;2023-01-29T02:35:15;102016.88;;;-3.99;100.00
18813;BME280;9534;51.140;6.296;2023-01-29T02:39:33;102028.34;;;-3.97;100.00
18813;BME280;9534;51.140;6.296;2023-01-29T02:43:44;102024.56;;;-3.93;100.00
18813;BME280;9534;51.140;6.296;2023-01-29T02:47:56;102027.56;;;-3.99;100.00
18813;BME280;9534;51.140;6.296;2023-01-29T02:52:04;102042.16;;;-3.89;100.00
18813;BME280;9534;51.140;6.296;2023-01-29T02:56:11;102021.38;;;-3.69;100.00
18813;BME280;9534;51.140;6.296;2023-01-29T03:00:18;102019.28;;;-3.33;100.00
18813;BME280;9534;51.140;6.296;2023-01-29T03:04:30;102005.81;;;-3.32;100.00
18813;BME280;9534;51.140;6.296;2023-01-29T03:08:39;102003.94;;;-3.45;100.00
18813;BME280;9534;51.140;6.296;2023-01-29T03:12:50;102003.09;;;-3.46;100.00
18813;BME280;9534;51.140;6.296;2023-01-29T03:16:57;101994.09;;;-3.45;100.00
18813;BME280;9534;51.140;6.296;2023-01-29T03:21:05;102002.19;;;-3.31;100.00
18813;BME280;9534;51.140;6.296;2023-01-29T03:25:30;102018.25;;;-3.31;100.00
18813;BME280;9534;51.140;6.296;2023-01-29T03:29:55;102010.41;;;-3.34;100.00
18813;BME280;9534;51.140;6.296;2023-01-29T03:34:23;102002.09;;;-3.29;100.00
18813;BME280;9534;51.140;6.296;2023-01-29T03:38:37;102012.66;;;-3.42;100.00
18813;BME280;9534;51.140;6.296;2023-01-29T03:42:49;102002.06;;;-3.58;100.00
18813;BME280;9534;51.140;6.296;2023-01-29T03:46:59;102005.16;;;-3.81;100.00
18813;BME280;9534;51.140;6.296;2023-01-29T03:51:15;102008.78;;;-3.67;100.00
18813;BME280;9534;51.140;6.296;2023-01-29T03:55:32;101999.88;;;-3.37;100.00
18813;BME280;9534;51.140;6.296;2023-01-29T03:59:40;102006.22;;;-3.24;100.00
18813;BME280;9534;51.140;6.296;2023-01-29T04:04:11;102005.66;;;-3.15;100.00
18813;BME280;9534;51.140;6.296;2023-01-29T04:08:22;102000.94;;;-2.96;100.00
18813;BME280;9534;51.140;6.296;2023-01-29T04:12:31;101986.38;;;-3.06;100.00
18813;BME280;9534;51.140;6.296;2023-01-29T04:16:40;101992.75;;;-2.93;100.00
18813;BME280;9534;51.140;6.296;2023-01-29T04:21:12;101973.91;;;-2.91;100.00
18813;BME280;9534;51.140;6.296;2023-01-29T04:25:18;101971.91;;;-2.88;100.00
18813;BME280;9534;51.140;6.296;2023-01-29T04:29:39;101973.72;;;-2.88;100.00
18813;BME280;9534;51.140;6.296;2023-01-29T04:33:52;101962.91;;;-2.87;100.00
18813;BME280;9534;51.140;6.296;2023-01-29T04:38:07;101949.16;;;-2.81;100.00
18813;BME280;9534;51.140;6.296;2023-01-29T04:42:19;101949.53;;;-2.73;100.00
18813;BME280;9534;51.140;6.296;2023-01-29T04:46:32;101942.16;;;-2.69;100.00
18813;BME280;9534;51.140;6.296;2023-01-29T04:50:39;101945.78;;;-2.70;100.00
18813;BME280;9534;51.140;6.296;2023-01-29T04:54:51;101952.41;;;-2.76;100.00
18813;BME280;9534;51.140;6.296;2023-01-29T04:58:59;101941.53;;;-2.59;100.00
18813;BME280;9534;51.140;6.296;2023-01-29T05:03:05;101936.75;;;-2.54;100.00
18813;BME280;9534;51.140;6.296;2023-01-29T05:07:12;101931.38;;;-2.54;100.00
18813;BME280;9534;51.140;6.296;2023-01-29T05:11:17;101936.91;;;-2.43;100.00
18813;BME280;9534;51.140;6.296;2023-01-29T05:15:24;101929.06;;;-2.46;100.00
18813;BME280;9534;51.140;6.296;2023-01-29T05:19:30;101928.28;;;-2.34;100.00
18813;BME280;9534;51.140;6.296;2023-01-29T05:23:33;101913.91;;;-2.33;100.00
18813;BME280;9534;51.140;6.296;2023-01-29T05:27:36;101912.19;;;-2.34;100.00
18813;BME280;9534;51.140;6.296;2023-01-29T05:31:57;101914.88;;;-2.34;100.00
18813;BME280;9534;51.140;6.296;2023-01-29T05:36:01;101914.50;;;-2.42;100.00
18813;BME280;9534;51.140;6.296;2023-01-29T05:40:07;101910.28;;;-2.32;100.00
18813;BME280;9534;51.140;6.296;2023-01-29T05:44:11;101905.31;;;-2.38;100.00
18813;BME280;9534;51.140;6.296;2023-01-29T05:48:14;101903.59;;;-2.39;100.00
18813;BME280;9534;51.140;6.296;2023-01-29T05:52:18;101900.13;;;-2.41;100.00
18813;BME280;9534;51.140;6.296;2023-01-29T05:56:21;101898.78;;;-2.34;100.00
18813;BME280;9534;51.140;6.296;2023-01-29T06:00:26;101896.03;;;-2.33;100.00
18813;BME280;9534;51.140;6.296;2023-01-29T06:04:29;101892.28;;;-2.30;100.00
18813;BME280;9534;51.140;6.296;2023-01-29T06:08:33;101916.41;;;-2.30;100.00
18813;BME280;9534;51.140;6.296;2023-01-29T06:12:36;101924.44;;;-2.30;100.00
18813;BME280;9534;51.140;6.296;2023-01-29T06:16:40;101927.50;;;-2.22;100.00
18813;BME280;9534;51.140;6.296;2023-01-29T06:20:43;101931.63;;;-2.17;100.00
18813;BME280;9534;51.140;6.296;2023-01-29T06:24:47;101939.84;;;-2.06;100.00
18813;BME280;9534;51.140;6.296;2023-01-29T06:28:50;101958.31;;;-2.01;100.00
18813;BME280;9534;51.140;6.296;2023-01-29T06:32:54;101964.22;;;-1.96;100.00
18813;BME280;9534;51.140;6.296;2023-01-29T06:36:59;101968.44;;;-1.92;100.00
18813;BME280;9534;51.140;6.296;2023-01-29T06:41:09;101947.63;;;-1.89;100.00
18813;BME280;9534;51.140;6.296;2023-01-29T06:45:12;101964.50;;;-1.87;100.00
18813;BME280;9534;51.140;6.296;2023-01-29T06:49:15;101961.72;;;-1.85;100.00
18813;BME280;9534;51.140;6.296;2023-01-29T06:53:18;101957.88;;;-1.81;100.00
18813;BME280;9534;51.140;6.296;2023-01-29T06:57:22;101939.88;;;-1.79;100.00
18813;BME280;9534;51.140;6.296;2023-01-29T07:01:26;101928.94;;;-1.76;100.00
18813;BME280;9534;51.140;6.296;2023-01-29T07:05:37;101908.03;;;-1.71;100.00
18813;BME280;9534;51.140;6.296;2023-01-29T07:09:40;101912.31;;;-1.69;100.00
18813;BME280;9534;51.140;6.296;2023-01-29T07:13:45;101914.91;;;-1.67;100.00
18813;BME280;9534;51.140;6.296;2023-01-29T07:17:55;101937.91;;;-1.63;100.00
18813;BME280;9534;51.140;6.296;2023-01-29T07:21:58;101928.44;;;-1.56;100.00
18813;BME280;9534;51.140;6.296;2023-01-29T07:26:04;101919.44;;;-1.55;100.00
18813;BME280;9534;51.140;6.296;2023-01-29T07:30:10;101912.13;;;-1.53;100.00
18813;BME280;9534;51.140;6.296;2023-01-29T07:34:13;101920.75;;;-1.48;100.00
18813;BME280;9534;51.140;6.296;2023-01-29T07:38:17;101928.50;;;-1.44;100.00
18813;BME280;9534;51.140;6.296;2023-01-29T07:42:20;101934.50;;;-1.40;100.00
18813;BME280;9534;51.140;6.296;2023-01-29T07:46:24;101914.34;;;-1.33;100.00
18813;BME280;9534;51.140;6.296;2023-01-29T07:50:27;101907.06;;;-1.31;100.00
18813;BME280;9534;51.140;6.296;2023-01-29T07:54:30;101915.88;;;-1.29;100.00
18813;BME280;9534;51.140;6.296;2023-01-29T07:58:33;101905.38;;;-1.20;100.00
18813;BME280;9534;51.140;6.296;2023-01-29T08:02:38;101908.91;;;-1.19;100.00
18813;BME280;9534;51.140;6.296;2023-01-29T08:06:42;101907.53;;;-1.13;100.00
18813;BME280;9534;51.140;6.296;2023-01-29T08:10:45;101901.28;;;-1.13;100.00
18813;BME280;9534;51.140;6.296;2023-01-29T08:14:48;101907.19;;;-1.08;100.00
18813;BME280;9534;51.140;6.296;2023-01-29T08:18:52;101916.47;;;-1.00;100.00
18813;BME280;9534;51.140;6.296;2023-01-29T08:22:59;101915.28;;;-0.96;100.00
18813;BME280;9534;51.140;6.296;2023-01-29T08:27:02;101921.75;;;-0.86;100.00
18813;BME280;9534;51.140;6.296;2023-01-29T08:31:12;101931.59;;;-0.74;100.00
18813;BME280;9534;51.140;6.296;2023-01-29T08:35:16;101915.28;;;-0.83;100.00
18813;BME280;9534;51.140;6.296;2023-01-29T08:39:20;101920.00;;;-0.74;100.00
18813;BME280;9534;51.140;6.296;2023-01-29T08:43:23;101916.34;;;-0.73;100.00
18813;BME280;9534;51.140;6.296;2023-01-29T08:47:26;101910.66;;;-0.69;100.00
18813;BME280;9534;51.140;6.296;2023-01-29T08:51:31;101901.41;;;-0.65;100.00
18813;BME280;9534;51.140;6.296;2023-01-29T08:55:36;101900.22;;;-0.61;100.00
18813;BME280;9534;51.140;6.296;2023-01-29T08:59:39;101887.44;;;-0.57;100.00
18813;BME280;9534;51.140;6.296;2023-01-29T09:03:42;101879.78;;;-0.51;100.00
18813;BME280;9534;51.140;6.296;2023-01-29T09:07:47;101890.31;;;-0.48;100.00
18813;BME280;9534;51.140;6.296;2023-01-29T09:11:50;101876.66;;;-0.45;100.00
18813;BME280;9534;51.140;6.296;2023-01-29T09:15:53;101877.41;;;-0.43;100.00
18813;BME280;9534;51.140;6.296;2023-01-29T09:19:58;101875.38;;;-0.39;100.00
18813;BME280;9534;51.140;6.296;2023-01-29T09:24:02;101876.91;;;-0.24;100.00
18813;BME280;9534;51.140;6.296;2023-01-29T09:28:06;101853.06;;;-0.29;100.00
18813;BME280;9534;51.140;6.296;2023-01-29T09:32:09;101862.69;;;-0.14;100.00
18813;BME280;9534;51.140;6.296;2023-01-29T09:36:12;101858.22;;;-0.26;100.00
18813;BME280;9534;51.140;6.296;2023-01-29T09:40:23;101863.16;;;-0.20;100.00
18813;BME280;9534;51.140;6.296;2023-01-29T09:44:43;101858.59;;;-0.07;100.00
18813;BME280;9534;51.140;6.296;2023-01-29T09:48:54;101843.13;;;-0.16;100.00
18813;BME280;9534;51.140;6.296;2023-01-29T09:53:04;101840.72;;;-0.08;100.00
18813;BME280;9534;51.140;6.296;2023-01-29T09:57:18;101849.09;;;0.00;100.00
18813;BME280;9534;51.140;6.296;2023-01-29T10:01:31;101839.75;;;0.16;100.00
18813;BME280;9534;51.140;6.296;2023-01-29T10:05:49;101835.50;;;0.25;100.00
18813;BME280;9534;51.140;6.296;2023-01-29T10:14:33;101826.25;;;0.40;100.00
18813;BME280;9534;51.140;6.296;2023-01-29T10:18:51;101825.81;;;0.46;100.00
18813;BME280;9534;51.140;6.296;2023-01-29T10:23:05;101827.03;;;0.53;100.00
18813;BME280;9534;51.140;6.296;2023-01-29T10:27:15;101829.31;;;0.70;100.00
18813;BME280;9534;51.140;6.296;2023-01-29T10:31:24;101825.47;;;0.50;100.00
18813;BME280;9534;51.140;6.296;2023-01-29T10:35:32;101839.31;;;0.57;100.00
18813;BME280;9534;51.140;6.296;2023-01-29T10:39:37;101821.00;;;0.84;100.00
18813;BME280;9534;51.140;6.296;2023-01-29T10:43:49;101813.94;;;0.94;100.00
18813;BME280;9534;51.140;6.296;2023-01-29T10:48:18;101821.34;;;0.79;100.00
18813;BME280;9534;51.140;6.296;2023-01-29T10:52:40;101811.13;;;1.06;100.00
18813;BME280;9534;51.140;6.296;2023-01-29T10:56:58;101796.53;;;1.09;100.00
18813;BME280;9534;51.140;6.296;2023-01-29T11:01:04;101779.00;;;1.03;100.00
18813;BME280;9534;51.140;6.296;2023-01-29T11:05:18;101773.50;;;1.16;100.00
18813;BME280;9534;51.140;6.296;2023-01-29T11:09:28;101767.00;;;1.18;100.00
18813;BME280;9534;51.140;6.296;2023-01-29T11:13:41;101771.75;;;1.36;100.00
18813;BME280;9534;51.140;6.296;2023-01-29T11:18:01;101773.22;;;1.40;100.00
18813;BME280;9534;51.140;6.296;2023-01-29T11:22:12;101765.88;;;1.53;100.00
18813;BME280;9534;51.140;6.296;2023-01-29T11:26:18;101759.50;;;1.43;100.00
18813;BME280;9534;51.140;6.296;2023-01-29T11:30:24;101751.38;;;1.65;100.00
18813;BME280;9534;51.140;6.296;2023-01-29T11:34:29;101748.69;;;1.54;100.00
18813;BME280;9534;51.140;6.296;2023-01-29T11:38:34;101742.34;;;1.44;100.00
18813;BME280;9534;51.140;6.296;2023-01-29T11:42:37;101735.19;;;1.65;100.00
18813;BME280;9534;51.140;6.296;2023-01-29T11:46:40;101733.59;;;1.52;100.00
18813;BME280;9534;51.140;6.296;2023-01-29T11:50:50;101719.53;;;1.48;100.00
18813;BME280;9534;51.140;6.296;2023-01-29T11:54:57;101697.81;;;1.50;100.00
18813;BME280;9534;51.140;6.296;2023-01-29T11:59:01;101708.19;;;1.76;100.00
18813;BME280;9534;51.140;6.296;2023-01-29T12:03:13;101685.16;;;1.61;100.00
18813;BME280;9534;51.140;6.296;2023-01-29T12:07:17;101682.19;;;1.75;100.00
18813;BME280;9534;51.140;6.296;2023-01-29T12:11:28;101656.56;;;1.90;100.00
18813;BME280;9534;51.140;6.296;2023-01-29T12:15:31;101648.41;;;1.81;100.00
18813;BME280;9534;51.140;6.296;2023-01-29T12:19:39;101643.06;;;1.90;100.00
18813;BME280;9534;51.140;6.296;2023-01-29T12:23:49;101634.00;;;1.91;100.00
18813;BME280;9534;51.140;6.296;2023-01-29T12:28:00;101623.47;;;1.88;100.00
18813;BME280;9534;51.140;6.296;2023-01-29T12:32:13;101602.75;;;1.89;100.00
18813;BME280;9534;51.140;6.296;2023-01-29T12:36:24;101597.47;;;2.08;100.00
18813;BME280;9534;51.140;6.296;2023-01-29T12:40:32;101592.97;;;1.97;100.00
18813;BME280;9534;51.140;6.296;2023-01-29T12:44:44;101583.13;;;1.87;100.00
18813;BME280;9534;51.140;6.296;2023-01-29T12:48:49;101578.75;;;1.95;100.00
18813;BME280;9534;51.140;6.296;2023-01-29T12:52:54;101571.28;;;1.99;100.00
18813;BME280;9534;51.140;6.296;2023-01-29T12:57:01;101569.22;;;1.91;100.00
18813;BME280;9534;51.140;6.296;2023-01-29T13:01:14;101547.81;;;1.99;100.00
18813;BME280;9534;51.140;6.296;2023-01-29T13:05:22;101541.16;;;2.03;100.00
18813;BME280;9534;51.140;6.296;2023-01-29T13:09:29;101522.50;;;1.91;100.00
18813;BME280;9534;51.140;6.296;2023-01-29T13:13:37;101512.19;;;2.05;100.00
18813;BME280;9534;51.140;6.296;2023-01-29T13:17:49;101510.03;;;2.29;100.00
18813;BME280;9534;51.140;6.296;2023-01-29T13:21:54;101509.56;;;2.54;100.00
18813;BME280;9534;51.140;6.296;2023-01-29T13:25:59;101510.50;;;2.44;100.00
18813;BME280;9534;51.140;6.296;2023-01-29T13:30:03;101512.38;;;2.43;100.00
18813;BME280;9534;51.140;6.296;2023-01-29T13:34:12;101529.38;;;2.34;100.00
18813;BME280;9534;51.140;6.296;2023-01-29T13:38:23;101524.25;;;2.31;100.00
18813;BME280;9534;51.140;6.296;2023-01-29T13:42:37;101516.31;;;2.39;100.00
18813;BME280;9534;51.140;6.296;2023-01-29T13:46:47;101516.78;;;2.44;100.00
18813;BME280;9534;51.140;6.296;2023-01-29T13:50:54;101520.84;;;2.29;100.00
18813;BME280;9534;51.140;6.296;2023-01-29T13:54:59;101528.84;;;2.40;100.00
18813;BME280;9534;51.140;6.296;2023-01-29T13:59:05;101541.91;;;2.35;100.00
18813;BME280;9534;51.140;6.296;2023-01-29T14:03:40;101531.94;;;2.36;100.00
18813;BME280;9534;51.140;6.296;2023-01-29T14:12:51;101536.50;;;2.35;100.00
18813;BME280;9534;51.140;6.296;2023-01-29T14:16:59;101525.44;;;2.38;100.00
18813;BME280;9534;51.140;6.296;2023-01-29T14:21:05;101512.31;;;2.34;100.00
18813;BME280;9534;51.140;6.296;2023-01-29T14:25:15;101513.03;;;2.36;100.00
18813;BME280;9534;51.140;6.296;2023-01-29T14:29:24;101500.94;;;2.30;100.00
18813;BME280;9534;51.140;6.296;2023-01-29T14:33:37;101498.97;;;2.32;100.00
18813;BME280;9534;51.140;6.296;2023-01-29T14:37:46;101498.97;;;2.32;100.00
18813;BME280;9534;51.140;6.296;2023-01-29T14:41:51;101493.13;;;2.27;100.00
18813;BME280;9534;51.140;6.296;2023-01-29T14:50:44;101498.97;;;2.32;100.00
18813;BME280;9534;51.140;6.296;2023-01-29T14:54:49;101506.34;;;2.30;100.00
18813;BME280;9534;51.140;6.296;2023-01-29T14:58:59;101499.22;;;2.29;100.00
18813;BME280;9534;51.140;6.296;2023-01-29T15:03:12;101498.25;;;2.30;100.00
18813;BME280;9534;51.140;6.296;2023-01-29T15:07:24;101497.53;;;2.28;100.00
18813;BME280;9534;51.140;6.296;2023-01-29T15:11:34;101504.63;;;2.29;100.00
18813;BME280;9534;51.140;6.296;2023-01-29T15:15:43;101493.84;;;2.29;100.00
18813;BME280;9534;51.140;6.296;2023-01-29T15:19:49;101494.66;;;2.30;100.00
18813;BME280;9534;51.140;6.296;2023-01-29T15:24:02;101493.56;;;2.32;100.00
18813;BME280;9534;51.140;6.296;2023-01-29T15:28:09;101488.44;;;2.29;100.00
18813;BME280;9534;51.140;6.296;2023-01-29T15:32:17;101488.09;;;2.23;100.00
18813;BME280;9534;51.140;6.296;2023-01-29T15:36:30;101478.63;;;2.28;100.00
18813;BME280;9534;51.140;6.296;2023-01-29T15:40:34;101471.91;;;2.23;100.00
18813;BME280;9534;51.140;6.296;2023-01-29T15:44:43;101467.09;;;2.26;100.00
18813;BME280;9534;51.140;6.296;2023-01-29T15:48:48;101473.31;;;2.17;100.00
18813;BME280;9534;51.140;6.296;2023-01-29T15:52:54;101476.47;;;2.22;100.00
18813;BME280;9534;51.140;6.296;2023-01-29T15:57:00;101458.56;;;2.21;100.00
18813;BME280;9534;51.140;6.296;2023-01-29T16:01:05;101451.72;;;2.17;100.00
18813;BME280;9534;51.140;6.296;2023-01-29T16:05:12;101441.06;;;2.16;100.00
18813;BME280;9534;51.140;6.296;2023-01-29T16:09:21;101444.78;;;2.15;100.00
18813;BME280;9534;51.140;6.296;2023-01-29T16:13:27;101424.00;;;2.15;100.00
18813;BME280;9534;51.140;6.296;2023-01-29T16:17:32;101435.78;;;2.14;100.00
18813;BME280;9534;51.140;6.296;2023-01-29T16:21:39;101440.94;;;2.17;100.00
18813;BME280;9534;51.140;6.296;2023-01-29T16:25:48;101440.47;;;2.12;100.00
18813;BME280;9534;51.140;6.296;2023-01-29T16:29:51;101444.88;;;2.13;100.00
18813;BME280;9534;51.140;6.296;2023-01-29T16:33:56;101435.78;;;2.14;100.00
18813;BME280;9534;51.140;6.296;2023-01-29T16:38:04;101427.84;;;2.13;100.00
18813;BME280;9534;51.140;6.296;2023-01-29T16:42:24;101418.75;;;2.14;100.00
18813;BME280;9534;51.140;6.296;2023-01-29T16:46:33;101413.22;;;2.15;100.00
18813;BME280;9534;51.140;6.296;2023-01-29T16:50:37;101420.03;;;2.19;100.00
18813;BME280;9534;51.140;6.296;2023-01-29T16:55:18;101413.38;;;2.23;100.00
18813;BME280;9534;51.140;6.296;2023-01-29T16:59:30;101398.16;;;2.22;100.00
18813;BME280;9534;51.140;6.296;2023-01-29T17:03:34;101406.28;;;2.22;100.00
18813;BME280;9534;51.140;6.296;2023-01-29T17:07:43;101403.84;;;2.19;100.00
18813;BME280;9534;51.140;6.296;2023-01-29T17:11:47;101394.31;;;2.15;100.00
18813;BME280;9534;51.140;6.296;2023-01-29T17:15:52;101404.41;;;2.13;100.00
18813;BME280;9534;51.140;6.296;2023-01-29T17:19:56;101398.28;;;2.11;100.00
18813;BME280;9534;51.140;6.296;2023-01-29T17:24:00;101386.06;;;2.07;100.00
18813;BME280;9534;51.140;6.296;2023-01-29T17:28:04;101383.22;;;2.09;100.00
18813;BME280;9534;51.140;6.296;2023-01-29T17:32:09;101387.75;;;2.08;100.00
18813;BME280;9534;51.140;6.296;2023-01-29T17:36:15;101389.47;;;2.09;100.00
18813;BME280;9534;51.140;6.296;2023-01-29T17:40:27;101380.09;;;2.13;100.00
18813;BME280;9534;51.140;6.296;2023-01-29T17:44:34;101373.59;;;2.16;100.00
18813;BME280;9534;51.140;6.296;2023-01-29T17:48:39;101373.59;;;2.16;100.00
18813;BME280;9534;51.140;6.296;2023-01-29T17:52:42;101373.88;;;2.22;100.00
18813;BME280;9534;51.140;6.296;2023-01-29T17:56:45;101368.19;;;2.25;100.00
18813;BME280;9534;51.140;6.296;2023-01-29T18:00:49;101354.25;;;2.30;100.00
18813;BME280;9534;51.140;6.296;2023-01-29T18:04:54;101339.22;;;2.27;100.00
18813;BME280;9534;51.140;6.296;2023-01-29T18:08:56;101352.44;;;2.30;100.00
18813;BME280;9534;51.140;6.296;2023-01-29T18:13:00;101342.63;;;2.39;100.00
18813;BME280;9534;51.140;6.296;2023-01-29T18:17:03;101335.81;;;2.44;100.00
18813;BME280;9534;51.140;6.296;2023-01-29T18:21:08;101339.94;;;2.48;100.00
18813;BME280;9534;51.140;6.296;2023-01-29T18:25:11;101334.66;;;2.47;100.00
18813;BME280;9534;51.140;6.296;2023-01-29T18:29:15;101327.28;;;2.48;100.00
18813;BME280;9534;51.140;6.296;2023-01-29T18:33:18;101320.75;;;2.51;100.00
18813;BME280;9534;51.140;6.296;2023-01-29T18:37:22;101323.00;;;2.55;100.00
18813;BME280;9534;51.140;6.296;2023-01-29T18:41:25;101324.72;;;2.56;100.00
18813;BME280;9534;51.140;6.296;2023-01-29T18:45:29;101308.66;;;2.55;100.00
18813;BME280;9534;51.140;6.296;2023-01-29T18:49:32;101293.59;;;2.62;100.00
18813;BME280;9534;51.140;6.296;2023-01-29T18:53:40;101299.28;;;2.59;100.00
18813;BME280;9534;51.140;6.296;2023-01-29T18:57:43;101296.28;;;2.62;100.00
18813;BME280;9534;51.140;6.296;2023-01-29T19:02:08;101290.47;;;2.57;100.00
18813;BME280;9534;51.140;6.296;2023-01-29T19:06:14;101276.78;;;2.58;100.00
18813;BME280;9534;51.140;6.296;2023-01-29T19:10:19;101267.84;;;2.58;100.00
18813;BME280;9534;51.140;6.296;2023-01-29T19:14:22;101279.78;;;2.65;100.00
18813;BME280;9534;51.140;6.296;2023-01-29T19:18:25;101280.34;;;2.68;100.00
18813;BME280;9534;51.140;6.296;2023-01-29T19:22:29;101272.34;;;2.67;100.00
18813;BME280;9534;51.140;6.296;2023-01-29T19:26:33;101269.41;;;2.60;100.00
18813;BME280;9534;51.140;6.296;2023-01-29T19:30:37;101260.47;;;2.60;100.00
18813;BME280;9534;51.140;6.296;2023-01-29T19:34:40;101265.88;;;2.41;100.00
18813;BME280;9534;51.140;6.296;2023-01-29T19:38:43;101270.13;;;2.34;100.00
18813;BME280;9534;51.140;6.296;2023-01-29T19:42:52;101262.31;;;2.31;100.00
18813;BME280;9534;51.140;6.296;2023-01-29T19:46:55;101259.63;;;2.31;100.00
18813;BME280;9534;51.140;6.296;2023-01-29T19:51:00;101255.06;;;2.41;100.00
18813;BME280;9534;51.140;6.296;2023-01-29T19:55:06;101242.69;;;2.48;100.00
18813;BME280;9534;51.140;6.296;2023-01-29T19:59:11;101233.72;;;2.47;100.00
18813;BME280;9534;51.140;6.296;2023-01-29T20:03:14;101229.44;;;2.54;100.00
18813;BME280;9534;51.140;6.296;2023-01-29T20:07:17;101216.53;;;2.58;100.00
18813;BME280;9534;51.140;6.296;2023-01-29T20:11:22;101213.81;;;2.58;100.00
18813;BME280;9534;51.140;6.296;2023-01-29T20:15:27;101201.31;;;2.57;100.00
18813;BME280;9534;51.140;6.296;2023-01-29T20:19:30;101176.00;;;2.58;100.00
18813;BME280;9534;51.140;6.296;2023-01-29T20:23:34;101178.78;;;2.66;100.00
18813;BME280;9534;51.140;6.296;2023-01-29T20:27:39;101160.28;;;2.71;100.00
18813;BME280;9534;51.140;6.296;2023-01-29T20:31:43;101154.88;;;2.71;100.00
18813;BME280;9534;51.140;6.296;2023-01-29T20:35:52;101143.19;;;2.80;100.00
18813;BME280;9534;51.140;6.296;2023-01-29T20:39:55;101145.06;;;2.79;100.00
18813;BME280;9534;51.140;6.296;2023-01-29T20:43:58;101153.72;;;2.83;100.00
18813;BME280;9534;51.140;6.296;2023-01-29T20:48:03;101152.28;;;2.88;100.00
18813;BME280;9534;51.140;6.296;2023-01-29T20:52:06;101142.47;;;2.87;100.00
18813;BME280;9534;51.140;6.296;2023-01-29T20:56:11;101155.00;;;2.88;100.00
18813;BME280;9534;51.140;6.296;2023-01-29T21:00:15;101132.91;;;2.93;100.00
18813;BME280;9534;51.140;6.296;2023-01-29T21:04:20;101151.53;;;2.96;100.00
18813;BME280;9534;51.140;6.296;2023-01-29T21:08:23;101140.56;;;2.97;100.00
18813;BME280;9534;51.140;6.296;2023-01-29T21:12:27;101147.69;;;2.98;100.00
18813;BME280;9534;51.140;6.296;2023-01-29T21:16:30;101156.63;;;2.99;100.00
18813;BME280;9534;51.140;6.296;2023-01-29T21:20:34;101139.72;;;2.97;100.00
18813;BME280;9534;51.140;6.296;2023-01-29T21:24:37;101132.31;;;2.99;100.00
18813;BME280;9534;51.140;6.296;2023-01-29T21:28:40;101124.34;;;2.97;100.00
18813;BME280;9534;51.140;6.296;2023-01-29T21:32:43;101132.06;;;2.92;100.00
18813;BME280;9534;51.140;6.296;2023-01-29T21:36:48;101149.13;;;2.93;100.00
18813;BME280;9534;51.140;6.296;2023-01-29T21:40:51;101170.19;;;2.89;100.00
18813;BME280;9534;51.140;6.296;2023-01-29T21:44:54;101175.44;;;2.91;100.00
18813;BME280;9534;51.140;6.296;2023-01-29T21:48:57;101191.66;;;2.91;100.00
18813;BME280;9534;51.140;6.296;2023-01-29T21:53:02;101176.75;;;2.87;100.00
18813;BME280;9534;51.140;6.296;2023-01-29T21:57:06;101193.38;;;2.92;100.00